• Join FlightAware (Why Join?)
  • Login
  • US Flag 
02:12AM EDT


 

Airport Tracker/Info


-or-


 

Live Flight TrackerFlight Track Log ✈ VH-AYT ✈ 08-May-2014 ✈ YMLS / WLE - YBAF

Flight Track Log - Related Links

Times and Time Zones

All times are in EDT time to prevent confusion due to time zone crossing. See the VH-AYT flight status page for this flight to view local times or setup timezone preferences in your user account.

Time Position Orientation Groundspeed Altitude Reporting Facility
EDT Latitude Longitude Course Direction KTS MPH feet Rate Location/Type
11:45PM -26.8328 150.2488 North 5,300  Level Aus ATC (Calculated)
11:46PM -26.8263 150.2495 111° Southeast 116 133 3,800 -600 Descending Aus ATC (RADAR)
11:47PM -26.8332 150.2696 111° Southeast 109 125 4,500 1,020 Climbing Aus ATC (RADAR)
11:47PM -26.8404 150.2895 112° Southeast 105 121 5,200 960 Climbing Aus ATC (RADAR)
11:48PM -26.8444 150.2997 113° Southeast 107 123 5,500 1,020 Climbing Aus ATC (RADAR)
11:49PM -26.8624 150.3465 113° Southeast 111 128 7,100 1,020 Climbing Aus ATC (RADAR)
11:49PM -26.8662 150.3572 112° Southeast 111 128 7,400 960 Climbing Aus ATC (RADAR)
11:50PM -26.8744 150.3774 114° Southeast 123 142 8,000 1,020 Climbing Aus ATC (RADAR)
11:51PM -26.8856 150.4020 117° Southeast 117 135 8,800 960 Climbing Aus ATC (RADAR)
11:51PM -26.8888 150.4104 113° Southeast 117 135 9,000 300 Climbing Aus ATC (RADAR)
11:52PM -26.8983 150.4369 112° Southeast 141 162 9,100 60 Climbing Aus ATC (RADAR)
11:53PM -26.9129 150.4806 110° East 173 199 9,100  Level Aus ATC (RADAR)
11:54PM -26.9288 150.5412 106° East 171 197 9,100  Level Aus ATC (RADAR)
11:54PM -26.9399 150.5707 113° Southeast 174 200 9,100  Level Aus ATC (RADAR)
11:55PM -26.9464 150.5871 114° Southeast 172 198 9,100  Level Aus ATC (RADAR)
11:55PM -26.9613 150.6194 117° Southeast 172 198 9,100  Level Aus ATC (RADAR)
11:56PM -26.9783 150.6542 119° Southeast 168 193 9,100  Level Aus ATC (RADAR)
11:57PM -26.9858 150.6842 106° East 169 194 9,100  Level Aus ATC (RADAR)
11:57PM -26.9973 150.7220 109° East 168 193 9,100  Level Aus ATC (RADAR)
11:58PM -27.0028 150.7386 110° East 168 193 9,100  Level Aus ATC (RADAR)
11:59PM -27.0225 150.7925 112° Southeast 171 197 9,100  Level Aus ATC (RADAR)
11:59PM -27.0322 150.8175 114° Southeast 172 198 9,100  Level Aus ATC (RADAR)
12:00AM -27.0386 150.8344 113° Southeast 174 200 9,100  Level Aus ATC (RADAR)
12:00AM -27.0505 150.8682 111° Southeast 173 199 9,100 -180 Level Aus ATC (RADAR)
12:01AM -27.0623 150.9017 112° Southeast 173 199 8,900 -120 Descending Aus ATC (RADAR)
12:02AM -27.0720 150.9316 110° East 172 198 9,000 60 Climbing Aus ATC (RADAR)
12:02AM -27.0863 150.9743 111° Southeast 174 200 9,000  Level Aus ATC (RADAR)
12:03AM -27.0924 150.9913 112° Southeast 173 199 9,000 60 Level Aus ATC (RADAR)
12:04AM -27.1110 151.0456 111° Southeast 171 197 9,100  Climbing Aus ATC (RADAR)
12:04AM -27.1177 151.0810 102° East 170 196 9,100  Level Aus ATC (RADAR)
12:05AM -27.1226 151.0981 108° East 170 196 9,100  Level Aus ATC (RADAR)
12:05AM -27.1312 151.1236 111° Southeast 172 198 9,100  Level Aus ATC (RADAR)
12:06AM -27.1488 151.1744 111° Southeast 172 198 9,100  Level Aus ATC (RADAR)
12:07AM -27.1592 151.2041 112° Southeast 173 199 9,100  Level Aus ATC (RADAR)
12:08AM -27.1735 151.2461 111° Southeast 172 198 9,100  Level Aus ATC (RADAR)
12:08AM -27.1848 151.2804 110° East 173 199 9,100  Level Aus ATC (RADAR)
12:10AM -27.2105 151.3567 111° Southeast 173 199 9,100  Level Aus ATC (RADAR)
12:10AM -27.2164 151.3741 111° Southeast 175 201 9,100  Level Aus ATC (RADAR)
12:11AM -27.2296 151.4092 113° Southeast 182 209 9,100  Level Aus ATC (RADAR)
12:12AM -27.2410 151.4444 110° East 177 204 9,100  Level Aus ATC (RADAR)
12:12AM -27.2527 151.4791 111° Southeast 174 200 9,100  Level Aus ATC (RADAR)
12:13AM -27.2674 151.5227 111° Southeast 175 201 9,100  Level Aus ATC (RADAR)
12:13AM -27.2749 151.5444 111° Southeast 176 203 9,100  Level Aus ATC (RADAR)
12:15AM -27.2964 151.6195 108° East 177 204 9,100  Level Aus ATC (RADAR)
12:15AM -27.3017 151.6371 109° East 177 204 9,100  Level Aus ATC (RADAR)
12:16AM -27.3116 151.6683 110° East 179 206 9,100  Level Aus ATC (RADAR)
12:17AM -27.3239 151.7122 108° East 175 201 9,100  Level Aus ATC (RADAR)
12:17AM -27.3351 151.7469 110° East 174 200 9,100  Level Aus ATC (RADAR)
12:18AM -27.3502 151.7948 110° East 173 199 9,100  Level Aus ATC (RADAR)
12:18AM -27.3546 151.8078 111° Southeast 174 200 9,100  Level Aus ATC (RADAR)
12:20AM -27.3802 151.8856 110° East 176 203 9,100  Level Aus ATC (RADAR)
12:20AM -27.3862 151.9028 111° Southeast 175 201 9,100  Level Aus ATC (RADAR)
12:21AM -27.3965 151.9332 111° Southeast 176 203 9,100  Level Aus ATC (RADAR)
12:22AM -27.4121 151.9809 110° East 177 204 9,100  Level Aus ATC (RADAR)
12:22AM -27.4216 152.0115 109° East 176 203 9,100  Level Aus ATC (RADAR)
12:23AM -27.4354 152.0548 110° East 175 201 9,100 -180 Level Aus ATC (RADAR)
12:24AM -27.4406 152.0723 108° East 175 201 8,900 -480 Descending Aus ATC (RADAR)
12:25AM -27.4679 152.1538 111° Southeast 181 208 8,300 -480 Descending Aus ATC (RADAR)
12:25AM -27.4738 152.1720 110° East 181 208 8,100 -600 Descending Aus ATC (RADAR)
12:26AM -27.4832 152.1982 112° Southeast 177 204 7,800 -540 Descending Aus ATC (RADAR)
12:27AM -27.5006 152.2498 111° Southeast 171 197 7,300 -540 Descending Aus ATC (RADAR)
12:27AM -27.5080 152.2811 105° East 175 201 7,000 -540 Descending Aus ATC (RADAR)
12:28AM -27.5191 152.3245 106° East 170 196 6,600 -480 Descending Aus ATC (RADAR)
12:30AM -27.5455 152.3900 114° Southeast 168 193 6,000 -600 Descending Aus ATC (RADAR)
12:30AM -27.5548 152.4149 113° Southeast 169 194 5,600 -720 Descending Aus ATC (RADAR)
12:30AM -27.5610 152.4316 113° Southeast 171 197 5,400 -600 Descending Aus ATC (RADAR)
12:31AM -27.5702 152.4609 109° East 168 193 5,100 -540 Descending Aus ATC (RADAR)
12:32AM -27.5817 152.5032 107° East 166 191 4,700 -480 Descending Aus ATC (RADAR)
12:32AM -27.5912 152.5363 108° East 162 186 4,400 -480 Descending Aus ATC (RADAR)
12:33AM -27.6016 152.5773 106° East 161 185 4,000 -480 Descending Aus ATC (RADAR)
12:34AM -27.6064 152.5934 109° East 159 183 3,900  Descending Aus ATC (RADAR)
12:35AM -27.6079 152.6683 91° East 153 176 4,000  Climbing Aus ATC (RADAR)
12:35AM -27.6070 152.6804 85° East 153 176 4,000 -600 Level Aus ATC (RADAR)
12:36AM -27.6039 152.7141 84° East 161 185 3,500 -720 Descending Aus ATC (RADAR)
12:37AM -27.6011 152.7590 86° East 170 196 3,000 -540 Descending Aus ATC (RADAR)
12:38AM -27.6003 152.7935 89° East 162 186 2,700 -540 Descending Aus ATC (RADAR)
12:38AM -27.5997 152.8318 89° East 161 185 2,300 -660 Descending Aus ATC (RADAR)
12:39AM -27.6003 152.8488 92° East 160 184 2,000 -480 Descending Aus ATC (RADAR)
12:40AM -27.5876 152.9230 79° East 161 185 1,500 -360 Descending Aus ATC (RADAR)
12:40AM -27.5819 152.9336 59° Northeast 158 182 1,400 -660 Descending Aus ATC (RADAR)
12:41AM -27.5674 152.9598 58° Northeast 146 168 900 -840 Descending Aus ATC (RADAR)
12:42AM -27.5690 152.9899 93° East 122 140 200 -840 Descending Aus ATC (RADAR)